sensor_id;sensor_type;location;lat;lon;timestamp;P1;durP1;ratioP1;P2;durP2;ratioP2
13999;SDS011;7075;53.574;10.054;2023-07-20T00:01:25;9.43;;;8.87;;
13999;SDS011;7075;53.574;10.054;2023-07-20T00:03:51;11.33;;;10.73;;
13999;SDS011;7075;53.574;10.054;2023-07-20T00:06:23;6.77;;;6.37;;
13999;SDS011;7075;53.574;10.054;2023-07-20T00:08:51;9.53;;;9.00;;
13999;SDS011;7075;53.574;10.054;2023-07-20T00:11:16;8.40;;;8.00;;
13999;SDS011;7075;53.574;10.054;2023-07-20T00:13:42;8.07;;;7.67;;
13999;SDS011;7075;53.574;10.054;2023-07-20T00:16:08;8.50;;;8.10;;
13999;SDS011;7075;53.574;10.054;2023-07-20T00:18:34;7.73;;;7.33;;
13999;SDS011;7075;53.574;10.054;2023-07-20T00:20:59;7.73;;;7.33;;
13999;SDS011;7075;53.574;10.054;2023-07-20T00:23:25;9.53;;;9.03;;
13999;SDS011;7075;53.574;10.054;2023-07-20T00:25:51;10.80;;;10.03;;
13999;SDS011;7075;53.574;10.054;2023-07-20T00:28:16;8.77;;;8.27;;
13999;SDS011;7075;53.574;10.054;2023-07-20T00:30:42;12.17;;;11.37;;
13999;SDS011;7075;53.574;10.054;2023-07-20T00:33:10;13.07;;;11.97;;
13999;SDS011;7075;53.574;10.054;2023-07-20T00:35:37;12.87;;;12.23;;
13999;SDS011;7075;53.574;10.054;2023-07-20T00:38:03;10.33;;;9.70;;
13999;SDS011;7075;53.574;10.054;2023-07-20T00:40:39;8.93;;;8.33;;
13999;SDS011;7075;53.574;10.054;2023-07-20T00:43:05;8.50;;;7.90;;
13999;SDS011;7075;53.574;10.054;2023-07-20T00:45:31;10.67;;;10.10;;
13999;SDS011;7075;53.574;10.054;2023-07-20T00:47:58;9.23;;;8.63;;
13999;SDS011;7075;53.574;10.054;2023-07-20T00:50:26;9.73;;;9.23;;
13999;SDS011;7075;53.574;10.054;2023-07-20T00:52:53;7.87;;;7.37;;
13999;SDS011;7075;53.574;10.054;2023-07-20T00:55:19;7.00;;;6.50;;
13999;SDS011;7075;53.574;10.054;2023-07-20T00:57:46;5.67;;;5.37;;
13999;SDS011;7075;53.574;10.054;2023-07-20T01:00:12;4.17;;;3.87;;
13999;SDS011;7075;53.574;10.054;2023-07-20T01:02:38;3.47;;;3.20;;
13999;SDS011;7075;53.574;10.054;2023-07-20T01:05:03;3.30;;;3.20;;
13999;SDS011;7075;53.574;10.054;2023-07-20T01:07:32;2.60;;;2.40;;
13999;SDS011;7075;53.574;10.054;2023-07-20T01:10:10;5.03;;;2.20;;
13999;SDS011;7075;53.574;10.054;2023-07-20T01:12:43;3.57;;;2.57;;
13999;SDS011;7075;53.574;10.054;2023-07-20T01:15:16;8.37;;;7.97;;
13999;SDS011;7075;53.574;10.054;2023-07-20T01:17:42;12.43;;;11.77;;
13999;SDS011;7075;53.574;10.054;2023-07-20T01:20:10;6.43;;;6.13;;
13999;SDS011;7075;53.574;10.054;2023-07-20T01:26:24;7.80;;;7.13;;
13999;SDS011;7075;53.574;10.054;2023-07-20T01:29:22;8.07;;;7.57;;
13999;SDS011;7075;53.574;10.054;2023-07-20T01:32:08;6.57;;;6.07;;
13999;SDS011;7075;53.574;10.054;2023-07-20T01:34:35;6.50;;;6.20;;
13999;SDS011;7075;53.574;10.054;2023-07-20T01:37:03;14.37;;;13.67;;
13999;SDS011;7075;53.574;10.054;2023-07-20T01:39:30;10.83;;;10.23;;
13999;SDS011;7075;53.574;10.054;2023-07-20T01:41:58;14.83;;;14.03;;
13999;SDS011;7075;53.574;10.054;2023-07-20T01:44:24;27.87;;;26.30;;
13999;SDS011;7075;53.574;10.054;2023-07-20T01:46:56;26.03;;;24.53;;
13999;SDS011;7075;53.574;10.054;2023-07-20T01:49:21;24.77;;;23.57;;
13999;SDS011;7075;53.574;10.054;2023-07-20T01:51:47;9.73;;;8.93;;
13999;SDS011;7075;53.574;10.054;2023-07-20T01:54:13;7.60;;;7.17;;
13999;SDS011;7075;53.574;10.054;2023-07-20T01:56:38;8.70;;;8.10;;
13999;SDS011;7075;53.574;10.054;2023-07-20T01:59:04;9.70;;;9.17;;
13999;SDS011;7075;53.574;10.054;2023-07-20T02:01:29;5.93;;;5.63;;
13999;SDS011;7075;53.574;10.054;2023-07-20T02:03:56;6.50;;;5.97;;
13999;SDS011;7075;53.574;10.054;2023-07-20T02:06:22;8.50;;;8.00;;
13999;SDS011;7075;53.574;10.054;2023-07-20T02:08:47;8.83;;;8.33;;
13999;SDS011;7075;53.574;10.054;2023-07-20T02:11:13;8.53;;;8.03;;
13999;SDS011;7075;53.574;10.054;2023-07-20T02:13:39;8.20;;;7.50;;
13999;SDS011;7075;53.574;10.054;2023-07-20T02:16:04;8.30;;;7.90;;
13999;SDS011;7075;53.574;10.054;2023-07-20T02:18:30;7.67;;;7.23;;
13999;SDS011;7075;53.574;10.054;2023-07-20T02:20:55;6.63;;;6.27;;
13999;SDS011;7075;53.574;10.054;2023-07-20T02:23:21;6.23;;;5.90;;
13999;SDS011;7075;53.574;10.054;2023-07-20T02:25:47;6.70;;;6.30;;
13999;SDS011;7075;53.574;10.054;2023-07-20T02:28:13;5.83;;;5.33;;
13999;SDS011;7075;53.574;10.054;2023-07-20T02:30:39;5.57;;;5.17;;
13999;SDS011;7075;53.574;10.054;2023-07-20T02:33:05;5.93;;;5.53;;
13999;SDS011;7075;53.574;10.054;2023-07-20T02:35:31;6.50;;;6.10;;
13999;SDS011;7075;53.574;10.054;2023-07-20T02:37:57;7.07;;;6.60;;
13999;SDS011;7075;53.574;10.054;2023-07-20T02:40:23;6.90;;;6.50;;
13999;SDS011;7075;53.574;10.054;2023-07-20T02:42:48;7.60;;;7.20;;
13999;SDS011;7075;53.574;10.054;2023-07-20T02:45:14;7.23;;;6.73;;
13999;SDS011;7075;53.574;10.054;2023-07-20T02:47:40;8.00;;;7.60;;
13999;SDS011;7075;53.574;10.054;2023-07-20T02:50:06;7.73;;;7.17;;
13999;SDS011;7075;53.574;10.054;2023-07-20T02:52:40;8.07;;;7.57;;
13999;SDS011;7075;53.574;10.054;2023-07-20T02:55:06;8.87;;;8.47;;
13999;SDS011;7075;53.574;10.054;2023-07-20T02:57:32;9.10;;;8.70;;
13999;SDS011;7075;53.574;10.054;2023-07-20T02:59:57;9.93;;;9.40;;
13999;SDS011;7075;53.574;10.054;2023-07-20T03:02:23;9.23;;;8.73;;
13999;SDS011;7075;53.574;10.054;2023-07-20T03:04:48;8.13;;;7.73;;
13999;SDS011;7075;53.574;10.054;2023-07-20T03:07:14;8.37;;;7.77;;
13999;SDS011;7075;53.574;10.054;2023-07-20T03:09:39;8.57;;;8.07;;
13999;SDS011;7075;53.574;10.054;2023-07-20T03:12:06;9.00;;;8.43;;
13999;SDS011;7075;53.574;10.054;2023-07-20T03:14:32;9.23;;;8.73;;
13999;SDS011;7075;53.574;10.054;2023-07-20T03:16:58;9.43;;;8.93;;
13999;SDS011;7075;53.574;10.054;2023-07-20T03:19:23;9.27;;;8.87;;
13999;SDS011;7075;53.574;10.054;2023-07-20T03:21:49;12.60;;;11.77;;
13999;SDS011;7075;53.574;10.054;2023-07-20T03:24:16;11.23;;;10.67;;
13999;SDS011;7075;53.574;10.054;2023-07-20T03:26:41;11.83;;;11.23;;
13999;SDS011;7075;53.574;10.054;2023-07-20T03:29:07;10.40;;;9.90;;
13999;SDS011;7075;53.574;10.054;2023-07-20T03:31:33;11.23;;;10.63;;
13999;SDS011;7075;53.574;10.054;2023-07-20T03:33:59;11.27;;;10.67;;
13999;SDS011;7075;53.574;10.054;2023-07-20T03:36:25;11.63;;;10.93;;
13999;SDS011;7075;53.574;10.054;2023-07-20T03:38:50;12.80;;;12.00;;
13999;SDS011;7075;53.574;10.054;2023-07-20T03:41:16;12.27;;;11.67;;
13999;SDS011;7075;53.574;10.054;2023-07-20T03:43:42;12.50;;;11.90;;
13999;SDS011;7075;53.574;10.054;2023-07-20T03:46:07;13.27;;;12.67;;
13999;SDS011;7075;53.574;10.054;2023-07-20T03:48:33;11.20;;;10.53;;
13999;SDS011;7075;53.574;10.054;2023-07-20T03:50:59;11.97;;;11.37;;
13999;SDS011;7075;53.574;10.054;2023-07-20T03:53:25;12.13;;;11.43;;
13999;SDS011;7075;53.574;10.054;2023-07-20T03:55:51;12.93;;;12.27;;
13999;SDS011;7075;53.574;10.054;2023-07-20T03:58:18;12.80;;;12.07;;
13999;SDS011;7075;53.574;10.054;2023-07-20T04:00:46;12.03;;;11.33;;
13999;SDS011;7075;53.574;10.054;2023-07-20T04:03:13;12.97;;;12.30;;
13999;SDS011;7075;53.574;10.054;2023-07-20T04:05:39;11.93;;;11.33;;
13999;SDS011;7075;53.574;10.054;2023-07-20T04:08:05;10.90;;;10.40;;
13999;SDS011;7075;53.574;10.054;2023-07-20T04:10:31;13.87;;;13.17;;
13999;SDS011;7075;53.574;10.054;2023-07-20T04:12:56;14.30;;;13.50;;
13999;SDS011;7075;53.574;10.054;2023-07-20T04:15:22;13.27;;;12.47;;
13999;SDS011;7075;53.574;10.054;2023-07-20T04:17:47;15.17;;;14.30;;
13999;SDS011;7075;53.574;10.054;2023-07-20T04:20:13;15.27;;;14.57;;
13999;SDS011;7075;53.574;10.054;2023-07-20T04:22:39;12.63;;;11.93;;
13999;SDS011;7075;53.574;10.054;2023-07-20T04:25:05;14.60;;;13.60;;
13999;SDS011;7075;53.574;10.054;2023-07-20T04:27:31;17.17;;;16.17;;
13999;SDS011;7075;53.574;10.054;2023-07-20T04:29:57;15.90;;;15.03;;
13999;SDS011;7075;53.574;10.054;2023-07-20T04:32:25;15.27;;;14.57;;
13999;SDS011;7075;53.574;10.054;2023-07-20T04:34:51;16.90;;;16.10;;
13999;SDS011;7075;53.574;10.054;2023-07-20T04:37:16;17.60;;;16.77;;
13999;SDS011;7075;53.574;10.054;2023-07-20T04:39:42;17.73;;;16.87;;
13999;SDS011;7075;53.574;10.054;2023-07-20T04:42:07;17.37;;;16.37;;
13999;SDS011;7075;53.574;10.054;2023-07-20T04:44:33;18.17;;;17.27;;
13999;SDS011;7075;53.574;10.054;2023-07-20T04:47:02;17.53;;;16.63;;
13999;SDS011;7075;53.574;10.054;2023-07-20T04:49:28;19.00;;;17.67;;
13999;SDS011;7075;53.574;10.054;2023-07-20T04:51:53;18.50;;;17.53;;
13999;SDS011;7075;53.574;10.054;2023-07-20T04:54:19;18.27;;;17.37;;
13999;SDS011;7075;53.574;10.054;2023-07-20T04:56:45;18.60;;;17.60;;
13999;SDS011;7075;53.574;10.054;2023-07-20T04:59:10;17.87;;;16.97;;
13999;SDS011;7075;53.574;10.054;2023-07-20T05:01:36;17.20;;;16.40;;
13999;SDS011;7075;53.574;10.054;2023-07-20T05:04:02;16.80;;;15.90;;
13999;SDS011;7075;53.574;10.054;2023-07-20T05:06:27;17.20;;;16.30;;
13999;SDS011;7075;53.574;10.054;2023-07-20T05:08:53;16.07;;;15.20;;
13999;SDS011;7075;53.574;10.054;2023-07-20T05:11:19;18.47;;;17.57;;
13999;SDS011;7075;53.574;10.054;2023-07-20T05:13:45;19.00;;;18.10;;
13999;SDS011;7075;53.574;10.054;2023-07-20T05:16:10;18.87;;;17.97;;
13999;SDS011;7075;53.574;10.054;2023-07-20T05:18:36;16.80;;;16.00;;
13999;SDS011;7075;53.574;10.054;2023-07-20T05:21:01;17.73;;;16.87;;
13999;SDS011;7075;53.574;10.054;2023-07-20T05:23:27;19.27;;;18.27;;
13999;SDS011;7075;53.574;10.054;2023-07-20T05:25:56;19.17;;;18.17;;
13999;SDS011;7075;53.574;10.054;2023-07-20T05:28:23;18.80;;;17.87;;
13999;SDS011;7075;53.574;10.054;2023-07-20T05:30:50;19.87;;;18.77;;
13999;SDS011;7075;53.574;10.054;2023-07-20T05:33:19;22.70;;;21.60;;
13999;SDS011;7075;53.574;10.054;2023-07-20T05:35:46;18.70;;;17.80;;
13999;SDS011;7075;53.574;10.054;2023-07-20T05:38:12;18.67;;;17.67;;
13999;SDS011;7075;53.574;10.054;2023-07-20T05:40:39;16.67;;;15.77;;
13999;SDS011;7075;53.574;10.054;2023-07-20T05:43:06;17.20;;;16.23;;
13999;SDS011;7075;53.574;10.054;2023-07-20T05:45:31;17.33;;;16.47;;
13999;SDS011;7075;53.574;10.054;2023-07-20T05:47:57;15.33;;;14.43;;
13999;SDS011;7075;53.574;10.054;2023-07-20T05:50:22;11.87;;;11.23;;
13999;SDS011;7075;53.574;10.054;2023-07-20T05:52:48;14.43;;;13.63;;
13999;SDS011;7075;53.574;10.054;2023-07-20T05:55:13;15.37;;;14.47;;
13999;SDS011;7075;53.574;10.054;2023-07-20T05:57:39;14.03;;;13.23;;
13999;SDS011;7075;53.574;10.054;2023-07-20T06:00:07;14.03;;;13.13;;
13999;SDS011;7075;53.574;10.054;2023-07-20T06:02:34;17.40;;;16.50;;
13999;SDS011;7075;53.574;10.054;2023-07-20T06:04:59;10.43;;;9.83;;
13999;SDS011;7075;53.574;10.054;2023-07-20T06:07:25;8.67;;;8.27;;
13999;SDS011;7075;53.574;10.054;2023-07-20T06:09:51;7.43;;;6.93;;
13999;SDS011;7075;53.574;10.054;2023-07-20T06:12:17;9.30;;;8.70;;
13999;SDS011;7075;53.574;10.054;2023-07-20T06:14:43;7.17;;;6.20;;
13999;SDS011;7075;53.574;10.054;2023-07-20T06:17:08;7.63;;;7.03;;
13999;SDS011;7075;53.574;10.054;2023-07-20T06:19:34;7.47;;;7.00;;
13999;SDS011;7075;53.574;10.054;2023-07-20T06:22:00;9.83;;;9.00;;
13999;SDS011;7075;53.574;10.054;2023-07-20T06:24:26;11.20;;;10.43;;
13999;SDS011;7075;53.574;10.054;2023-07-20T06:26:51;8.10;;;7.60;;
13999;SDS011;7075;53.574;10.054;2023-07-20T06:29:17;12.20;;;11.20;;
13999;SDS011;7075;53.574;10.054;2023-07-20T06:31:42;8.97;;;8.57;;
13999;SDS011;7075;53.574;10.054;2023-07-20T06:34:08;5.80;;;5.40;;
13999;SDS011;7075;53.574;10.054;2023-07-20T06:36:34;5.13;;;4.83;;
13999;SDS011;7075;53.574;10.054;2023-07-20T06:39:00;5.80;;;5.40;;
13999;SDS011;7075;53.574;10.054;2023-07-20T06:41:25;5.70;;;5.20;;
13999;SDS011;7075;53.574;10.054;2023-07-20T06:43:51;6.50;;;6.10;;
13999;SDS011;7075;53.574;10.054;2023-07-20T06:46:17;6.03;;;5.53;;
13999;SDS011;7075;53.574;10.054;2023-07-20T06:48:43;6.03;;;5.53;;
13999;SDS011;7075;53.574;10.054;2023-07-20T06:51:08;9.23;;;8.63;;
13999;SDS011;7075;53.574;10.054;2023-07-20T06:53:34;9.53;;;8.93;;
13999;SDS011;7075;53.574;10.054;2023-07-20T06:56:00;13.77;;;12.97;;
13999;SDS011;7075;53.574;10.054;2023-07-20T06:58:25;22.77;;;21.47;;
13999;SDS011;7075;53.574;10.054;2023-07-20T07:00:51;16.93;;;15.83;;
13999;SDS011;7075;53.574;10.054;2023-07-20T07:03:17;20.60;;;19.27;;
13999;SDS011;7075;53.574;10.054;2023-07-20T07:05:43;17.30;;;16.20;;
13999;SDS011;7075;53.574;10.054;2023-07-20T07:08:10;20.73;;;19.67;;
13999;SDS011;7075;53.574;10.054;2023-07-20T07:10:36;19.23;;;18.10;;
13999;SDS011;7075;53.574;10.054;2023-07-20T07:13:02;11.27;;;10.57;;
13999;SDS011;7075;53.574;10.054;2023-07-20T07:15:28;9.87;;;9.37;;
13999;SDS011;7075;53.574;10.054;2023-07-20T07:17:54;15.03;;;14.17;;
13999;SDS011;7075;53.574;10.054;2023-07-20T07:20:22;11.17;;;10.57;;
13999;SDS011;7075;53.574;10.054;2023-07-20T07:22:49;4.43;;;3.60;;
13999;SDS011;7075;53.574;10.054;2023-07-20T07:25:16;9.30;;;8.70;;
13999;SDS011;7075;53.574;10.054;2023-07-20T07:27:41;15.40;;;14.63;;
13999;SDS011;7075;53.574;10.054;2023-07-20T07:30:07;16.40;;;15.40;;
13999;SDS011;7075;53.574;10.054;2023-07-20T07:32:33;15.77;;;14.83;;
13999;SDS011;7075;53.574;10.054;2023-07-20T07:34:58;15.70;;;14.57;;
13999;SDS011;7075;53.574;10.054;2023-07-20T07:37:25;16.00;;;14.93;;
13999;SDS011;7075;53.574;10.054;2023-07-20T07:39:51;14.23;;;13.33;;
13999;SDS011;7075;53.574;10.054;2023-07-20T07:42:16;16.63;;;15.53;;
13999;SDS011;7075;53.574;10.054;2023-07-20T07:44:43;18.67;;;17.73;;
13999;SDS011;7075;53.574;10.054;2023-07-20T07:47:09;18.23;;;17.03;;
13999;SDS011;7075;53.574;10.054;2023-07-20T07:49:34;16.77;;;15.80;;
13999;SDS011;7075;53.574;10.054;2023-07-20T07:52:00;19.20;;;17.77;;
13999;SDS011;7075;53.574;10.054;2023-07-20T07:54:27;13.17;;;12.47;;
13999;SDS011;7075;53.574;10.054;2023-07-20T07:56:53;18.03;;;16.90;;
13999;SDS011;7075;53.574;10.054;2023-07-20T07:59:19;11.43;;;10.63;;
13999;SDS011;7075;53.574;10.054;2023-07-20T08:01:45;10.97;;;10.17;;
13999;SDS011;7075;53.574;10.054;2023-07-20T08:04:10;12.43;;;11.43;;
13999;SDS011;7075;53.574;10.054;2023-07-20T08:06:36;18.10;;;16.83;;
13999;SDS011;7075;53.574;10.054;2023-07-20T08:09:02;18.00;;;17.00;;
13999;SDS011;7075;53.574;10.054;2023-07-20T08:11:28;15.20;;;14.10;;
13999;SDS011;7075;53.574;10.054;2023-07-20T08:13:56;9.27;;;7.83;;
13999;SDS011;7075;53.574;10.054;2023-07-20T08:16:22;8.70;;;7.90;;
13999;SDS011;7075;53.574;10.054;2023-07-20T08:18:47;9.50;;;8.70;;
13999;SDS011;7075;53.574;10.054;2023-07-20T08:21:13;9.00;;;8.33;;
13999;SDS011;7075;53.574;10.054;2023-07-20T08:23:39;9.03;;;8.37;;
13999;SDS011;7075;53.574;10.054;2023-07-20T08:28:34;6.27;;;5.80;;
13999;SDS011;7075;53.574;10.054;2023-07-20T08:31:00;7.70;;;5.43;;
13999;SDS011;7075;53.574;10.054;2023-07-20T08:33:25;4.33;;;3.93;;
13999;SDS011;7075;53.574;10.054;2023-07-20T08:35:54;3.67;;;3.37;;
13999;SDS011;7075;53.574;10.054;2023-07-20T08:38:21;3.70;;;3.03;;
13999;SDS011;7075;53.574;10.054;2023-07-20T08:40:47;4.67;;;3.53;;
13999;SDS011;7075;53.574;10.054;2023-07-20T08:43:13;4.37;;;3.33;;
13999;SDS011;7075;53.574;10.054;2023-07-20T08:45:44;5.17;;;3.53;;
13999;SDS011;7075;53.574;10.054;2023-07-20T08:48:12;5.63;;;4.00;;
13999;SDS011;7075;53.574;10.054;2023-07-20T08:50:39;5.93;;;5.43;;
13999;SDS011;7075;53.574;10.054;2023-07-20T08:53:06;7.77;;;7.10;;
13999;SDS011;7075;53.574;10.054;2023-07-20T08:55:33;10.10;;;9.10;;
13999;SDS011;7075;53.574;10.054;2023-07-20T08:58:00;7.77;;;6.83;;
13999;SDS011;7075;53.574;10.054;2023-07-20T09:00:27;9.87;;;9.17;;
13999;SDS011;7075;53.574;10.054;2023-07-20T09:02:56;5.20;;;4.70;;
13999;SDS011;7075;53.574;10.054;2023-07-20T09:05:24;8.03;;;6.13;;
13999;SDS011;7075;53.574;10.054;2023-07-20T09:07:51;7.00;;;5.87;;
13999;SDS011;7075;53.574;10.054;2023-07-20T09:10:24;9.97;;;8.30;;
13999;SDS011;7075;53.574;10.054;2023-07-20T09:12:50;9.93;;;8.33;;
13999;SDS011;7075;53.574;10.054;2023-07-20T09:15:17;11.20;;;10.40;;
13999;SDS011;7075;53.574;10.054;2023-07-20T09:17:48;13.23;;;12.17;;
13999;SDS011;7075;53.574;10.054;2023-07-20T09:20:15;13.63;;;9.87;;
13999;SDS011;7075;53.574;10.054;2023-07-20T09:22:42;12.90;;;11.67;;
13999;SDS011;7075;53.574;10.054;2023-07-20T09:25:18;10.03;;;7.30;;
13999;SDS011;7075;53.574;10.054;2023-07-20T09:27:46;6.23;;;5.63;;
13999;SDS011;7075;53.574;10.054;2023-07-20T09:30:13;6.33;;;5.73;;
13999;SDS011;7075;53.574;10.054;2023-07-20T09:35:18;7.90;;;4.73;;
13999;SDS011;7075;53.574;10.054;2023-07-20T09:37:46;5.97;;;5.43;;
13999;SDS011;7075;53.574;10.054;2023-07-20T09:40:14;5.03;;;4.50;;
13999;SDS011;7075;53.574;10.054;2023-07-20T09:42:42;5.10;;;4.67;;
13999;SDS011;7075;53.574;10.054;2023-07-20T09:45:08;5.97;;;4.67;;
13999;SDS011;7075;53.574;10.054;2023-07-20T09:47:35;4.83;;;4.53;;
13999;SDS011;7075;53.574;10.054;2023-07-20T09:50:04;5.87;;;4.90;;
13999;SDS011;7075;53.574;10.054;2023-07-20T09:52:35;4.00;;;3.73;;
13999;SDS011;7075;53.574;10.054;2023-07-20T09:55:09;6.07;;;4.70;;
13999;SDS011;7075;53.574;10.054;2023-07-20T09:57:38;5.17;;;4.80;;
13999;SDS011;7075;53.574;10.054;2023-07-20T10:00:04;5.13;;;4.77;;
13999;SDS011;7075;53.574;10.054;2023-07-20T10:02:41;5.67;;;5.27;;
13999;SDS011;7075;53.574;10.054;2023-07-20T10:05:12;9.87;;;9.10;;
13999;SDS011;7075;53.574;10.054;2023-07-20T10:07:49;10.13;;;9.53;;
13999;SDS011;7075;53.574;10.054;2023-07-20T10:10:16;14.23;;;13.40;;
13999;SDS011;7075;53.574;10.054;2023-07-20T10:12:49;14.93;;;13.97;;
13999;SDS011;7075;53.574;10.054;2023-07-20T10:15:24;14.90;;;13.80;;
13999;SDS011;7075;53.574;10.054;2023-07-20T10:18:09;7.40;;;6.77;;
13999;SDS011;7075;53.574;10.054;2023-07-20T10:20:42;15.30;;;14.47;;
13999;SDS011;7075;53.574;10.054;2023-07-20T10:23:09;14.80;;;13.80;;
13999;SDS011;7075;53.574;10.054;2023-07-20T10:25:36;12.40;;;11.60;;
13999;SDS011;7075;53.574;10.054;2023-07-20T10:28:04;15.73;;;14.67;;
13999;SDS011;7075;53.574;10.054;2023-07-20T10:30:31;5.20;;;4.83;;
13999;SDS011;7075;53.574;10.054;2023-07-20T10:32:59;5.20;;;2.83;;
13999;SDS011;7075;53.574;10.054;2023-07-20T10:35:27;4.93;;;2.27;;
13999;SDS011;7075;53.574;10.054;2023-07-20T10:37:53;4.90;;;2.80;;
13999;SDS011;7075;53.574;10.054;2023-07-20T10:40:24;4.30;;;2.33;;
13999;SDS011;7075;53.574;10.054;2023-07-20T10:43:01;3.20;;;2.60;;
13999;SDS011;7075;53.574;10.054;2023-07-20T10:45:35;4.37;;;2.83;;
13999;SDS011;7075;53.574;10.054;2023-07-20T10:48:04;7.70;;;3.00;;
13999;SDS011;7075;53.574;10.054;2023-07-20T10:50:31;3.63;;;3.40;;
13999;SDS011;7075;53.574;10.054;2023-07-20T10:53:09;6.13;;;5.73;;
13999;SDS011;7075;53.574;10.054;2023-07-20T10:55:39;6.30;;;5.87;;
13999;SDS011;7075;53.574;10.054;2023-07-20T10:58:14;6.93;;;6.13;;
13999;SDS011;7075;53.574;10.054;2023-07-20T11:03:32;10.13;;;9.47;;
13999;SDS011;7075;53.574;10.054;2023-07-20T11:06:01;6.53;;;5.97;;
13999;SDS011;7075;53.574;10.054;2023-07-20T11:08:45;10.30;;;5.23;;
13999;SDS011;7075;53.574;10.054;2023-07-20T11:13:55;5.13;;;4.47;;
13999;SDS011;7075;53.574;10.054;2023-07-20T11:16:35;7.37;;;6.77;;
13999;SDS011;7075;53.574;10.054;2023-07-20T11:19:02;6.03;;;4.70;;
13999;SDS011;7075;53.574;10.054;2023-07-20T11:21:30;6.23;;;4.03;;
13999;SDS011;7075;53.574;10.054;2023-07-20T11:24:05;6.23;;;4.97;;
13999;SDS011;7075;53.574;10.054;2023-07-20T11:26:44;9.00;;;8.37;;
13999;SDS011;7075;53.574;10.054;2023-07-20T11:29:12;14.13;;;12.93;;
13999;SDS011;7075;53.574;10.054;2023-07-20T11:31:39;24.73;;;23.37;;
13999;SDS011;7075;53.574;10.054;2023-07-20T11:34:06;17.07;;;15.87;;
13999;SDS011;7075;53.574;10.054;2023-07-20T11:36:35;6.87;;;6.37;;
13999;SDS011;7075;53.574;10.054;2023-07-20T11:39:00;4.40;;;4.10;;
13999;SDS011;7075;53.574;10.054;2023-07-20T11:41:29;4.53;;;4.17;;
13999;SDS011;7075;53.574;10.054;2023-07-20T11:43:56;7.07;;;6.60;;
13999;SDS011;7075;53.574;10.054;2023-07-20T11:46:22;8.97;;;8.57;;
13999;SDS011;7075;53.574;10.054;2023-07-20T11:48:48;25.47;;;24.23;;
13999;SDS011;7075;53.574;10.054;2023-07-20T11:51:14;19.10;;;18.10;;
13999;SDS011;7075;53.574;10.054;2023-07-20T11:53:42;66.43;;;63.07;;
13999;SDS011;7075;53.574;10.054;2023-07-20T11:56:11;2.77;;;1.53;;
13999;SDS011;7075;53.574;10.054;2023-07-20T11:58:41;4.03;;;3.83;;
13999;SDS011;7075;53.574;10.054;2023-07-20T12:01:08;5.33;;;4.93;;
13999;SDS011;7075;53.574;10.054;2023-07-20T12:03:34;3.70;;;3.43;;
13999;SDS011;7075;53.574;10.054;2023-07-20T12:06:06;1.93;;;1.70;;
13999;SDS011;7075;53.574;10.054;2023-07-20T12:08:33;1.70;;;1.60;;
13999;SDS011;7075;53.574;10.054;2023-07-20T12:10:59;3.17;;;1.80;;
13999;SDS011;7075;53.574;10.054;2023-07-20T12:13:35;2.30;;;2.10;;
13999;SDS011;7075;53.574;10.054;2023-07-20T12:16:14;2.77;;;1.93;;
13999;SDS011;7075;53.574;10.054;2023-07-20T12:18:42;3.73;;;3.53;;
13999;SDS011;7075;53.574;10.054;2023-07-20T12:21:08;5.33;;;4.93;;
13999;SDS011;7075;53.574;10.054;2023-07-20T12:23:34;6.07;;;5.60;;
13999;SDS011;7075;53.574;10.054;2023-07-20T12:26:02;6.73;;;6.30;;
13999;SDS011;7075;53.574;10.054;2023-07-20T12:28:28;8.97;;;8.17;;
13999;SDS011;7075;53.574;10.054;2023-07-20T12:30:55;7.43;;;7.03;;
13999;SDS011;7075;53.574;10.054;2023-07-20T12:33:23;5.60;;;5.10;;
13999;SDS011;7075;53.574;10.054;2023-07-20T12:35:49;7.27;;;6.53;;
13999;SDS011;7075;53.574;10.054;2023-07-20T12:38:16;6.17;;;5.47;;
13999;SDS011;7075;53.574;10.054;2023-07-20T12:40:41;9.13;;;8.43;;
13999;SDS011;7075;53.574;10.054;2023-07-20T12:43:07;7.57;;;7.00;;
13999;SDS011;7075;53.574;10.054;2023-07-20T12:45:33;6.57;;;6.07;;
13999;SDS011;7075;53.574;10.054;2023-07-20T12:47:59;6.93;;;5.83;;
13999;SDS011;7075;53.574;10.054;2023-07-20T12:50:26;6.20;;;5.20;;
13999;SDS011;7075;53.574;10.054;2023-07-20T12:52:52;4.87;;;4.40;;
13999;SDS011;7075;53.574;10.054;2023-07-20T12:55:17;6.93;;;5.00;;
13999;SDS011;7075;53.574;10.054;2023-07-20T12:57:43;5.00;;;4.50;;
13999;SDS011;7075;53.574;10.054;2023-07-20T13:00:09;4.57;;;4.23;;
13999;SDS011;7075;53.574;10.054;2023-07-20T13:02:37;5.90;;;4.93;;
13999;SDS011;7075;53.574;10.054;2023-07-20T13:05:03;6.13;;;4.97;;
13999;SDS011;7075;53.574;10.054;2023-07-20T13:07:34;7.07;;;4.83;;
13999;SDS011;7075;53.574;10.054;2023-07-20T13:10:01;6.03;;;5.43;;
13999;SDS011;7075;53.574;10.054;2023-07-20T13:12:29;5.90;;;5.10;;
13999;SDS011;7075;53.574;10.054;2023-07-20T13:14:57;6.97;;;5.00;;
13999;SDS011;7075;53.574;10.054;2023-07-20T13:17:26;5.60;;;3.80;;
13999;SDS011;7075;53.574;10.054;2023-07-20T13:19:52;16.53;;;15.23;;
13999;SDS011;7075;53.574;10.054;2023-07-20T13:22:18;13.90;;;13.03;;
13999;SDS011;7075;53.574;10.054;2023-07-20T13:24:46;15.67;;;14.63;;
13999;SDS011;7075;53.574;10.054;2023-07-20T13:27:18;19.43;;;18.43;;
13999;SDS011;7075;53.574;10.054;2023-07-20T13:29:44;9.07;;;8.47;;
13999;SDS011;7075;53.574;10.054;2023-07-20T13:32:12;4.20;;;3.87;;
13999;SDS011;7075;53.574;10.054;2023-07-20T13:34:40;10.50;;;9.90;;
13999;SDS011;7075;53.574;10.054;2023-07-20T13:37:08;7.73;;;7.20;;
13999;SDS011;7075;53.574;10.054;2023-07-20T13:39:34;8.70;;;7.93;;
13999;SDS011;7075;53.574;10.054;2023-07-20T13:42:00;6.53;;;5.80;;
13999;SDS011;7075;53.574;10.054;2023-07-20T13:44:30;7.10;;;6.60;;
13999;SDS011;7075;53.574;10.054;2023-07-20T13:46:56;7.57;;;7.17;;
13999;SDS011;7075;53.574;10.054;2023-07-20T13:49:22;8.77;;;8.27;;
13999;SDS011;7075;53.574;10.054;2023-07-20T13:51:48;10.17;;;9.17;;
13999;SDS011;7075;53.574;10.054;2023-07-20T13:54:14;9.00;;;8.40;;
13999;SDS011;7075;53.574;10.054;2023-07-20T13:56:39;7.07;;;6.47;;
13999;SDS011;7075;53.574;10.054;2023-07-20T13:59:05;8.53;;;7.93;;
13999;SDS011;7075;53.574;10.054;2023-07-20T14:01:31;6.97;;;6.47;;
13999;SDS011;7075;53.574;10.054;2023-07-20T14:03:59;5.20;;;5.00;;
13999;SDS011;7075;53.574;10.054;2023-07-20T14:06:25;5.00;;;4.70;;
13999;SDS011;7075;53.574;10.054;2023-07-20T14:08:51;5.50;;;5.20;;
13999;SDS011;7075;53.574;10.054;2023-07-20T14:11:18;9.90;;;9.40;;
13999;SDS011;7075;53.574;10.054;2023-07-20T14:13:43;7.33;;;6.67;;
13999;SDS011;7075;53.574;10.054;2023-07-20T14:16:09;5.33;;;4.90;;
13999;SDS011;7075;53.574;10.054;2023-07-20T14:18:35;4.80;;;4.53;;
13999;SDS011;7075;53.574;10.054;2023-07-20T14:21:01;5.77;;;5.37;;
13999;SDS011;7075;53.574;10.054;2023-07-20T14:23:28;5.90;;;5.40;;
13999;SDS011;7075;53.574;10.054;2023-07-20T14:25:54;5.90;;;5.50;;
13999;SDS011;7075;53.574;10.054;2023-07-20T14:28:20;5.93;;;5.37;;
13999;SDS011;7075;53.574;10.054;2023-07-20T14:30:46;5.70;;;5.20;;
13999;SDS011;7075;53.574;10.054;2023-07-20T14:33:11;5.17;;;4.67;;
13999;SDS011;7075;53.574;10.054;2023-07-20T14:35:37;5.97;;;5.50;;
13999;SDS011;7075;53.574;10.054;2023-07-20T14:38:03;9.77;;;9.03;;
13999;SDS011;7075;53.574;10.054;2023-07-20T14:40:29;26.70;;;25.13;;
13999;SDS011;7075;53.574;10.054;2023-07-20T14:42:57;24.80;;;23.50;;
13999;SDS011;7075;53.574;10.054;2023-07-20T14:45:25;3.73;;;3.40;;
13999;SDS011;7075;53.574;10.054;2023-07-20T14:47:53;5.47;;;4.03;;
13999;SDS011;7075;53.574;10.054;2023-07-20T14:50:19;3.93;;;3.73;;
13999;SDS011;7075;53.574;10.054;2023-07-20T14:52:46;5.33;;;4.93;;